KMCO

Orlando International Airport

Orlando, Florida, USA
METAR KMCO 201453Z 12010KT 9SM SCT019 26/20 A3036 RMK AO2 SLP280 T02560200 51015
Observed Flight Rules
Feb-20 @ 14:53 UTC (2 hours ago) Visual Flight Rules
Wind Visibility Clouds
120° at 10 knots 9 miles
  • Scattered at 1,900' AGL
Temperatures Readings
Current 26°C / 79°F
Dewpoint 20°C / 68°F
Humidity 70%
Altimeter 30.36" Hg
Pressure 1028 hPa
Elevation 29
METAR KMCO 201453Z 12010KT 9SM SCT019 26/20 A3036 RMK AO2 SLP280 T02560200 51015
Observed Flight Rules
Feb-20 @ 14:53 UTC
(2 hours ago)
VFR
Wind Visibility
120° at 10 knots 9 miles
Clouds
  • Scattered at 1,900' AGL
Temperature Dewpoint
26°C / 79°F 20°C / 68°F
Humidity Altimeter Pressure
70% 30.36" Hg 1028 hPa